sensor_id;sensor_type;location;lat;lon;timestamp;P1;durP1;ratioP1;P2;durP2;ratioP2
22778;SDS011;11556;51.194;3.800;2023-06-04T00:00:24;3.28;;;1.67;;
22778;SDS011;11556;51.194;3.800;2023-06-04T00:02:50;3.72;;;1.55;;
22778;SDS011;11556;51.194;3.800;2023-06-04T00:05:16;6.28;;;1.83;;
22778;SDS011;11556;51.194;3.800;2023-06-04T00:07:42;2.72;;;1.60;;
22778;SDS011;11556;51.194;3.800;2023-06-04T00:10:08;5.03;;;1.77;;
22778;SDS011;11556;51.194;3.800;2023-06-04T00:12:34;2.17;;;1.65;;
22778;SDS011;11556;51.194;3.800;2023-06-04T00:15:00;2.65;;;1.52;;
22778;SDS011;11556;51.194;3.800;2023-06-04T00:17:26;3.63;;;1.50;;
22778;SDS011;11556;51.194;3.800;2023-06-04T00:19:52;3.92;;;1.60;;
22778;SDS011;11556;51.194;3.800;2023-06-04T00:22:17;5.60;;;1.70;;
22778;SDS011;11556;51.194;3.800;2023-06-04T00:24:43;6.13;;;1.90;;
22778;SDS011;11556;51.194;3.800;2023-06-04T00:27:09;7.95;;;2.30;;
22778;SDS011;11556;51.194;3.800;2023-06-04T00:29:34;5.80;;;2.45;;
22778;SDS011;11556;51.194;3.800;2023-06-04T00:32:00;10.45;;;3.00;;
22778;SDS011;11556;51.194;3.800;2023-06-04T00:34:26;3.22;;;1.65;;
22778;SDS011;11556;51.194;3.800;2023-06-04T00:36:52;4.72;;;2.08;;
22778;SDS011;11556;51.194;3.800;2023-06-04T00:39:18;3.90;;;1.98;;
22778;SDS011;11556;51.194;3.800;2023-06-04T00:41:43;7.07;;;2.00;;
22778;SDS011;11556;51.194;3.800;2023-06-04T00:44:09;4.53;;;2.00;;
22778;SDS011;11556;51.194;3.800;2023-06-04T00:46:36;9.63;;;2.08;;
22778;SDS011;11556;51.194;3.800;2023-06-04T00:49:02;3.90;;;1.90;;
22778;SDS011;11556;51.194;3.800;2023-06-04T00:51:29;4.18;;;1.85;;
22778;SDS011;11556;51.194;3.800;2023-06-04T00:53:56;5.80;;;2.00;;
22778;SDS011;11556;51.194;3.800;2023-06-04T00:56:23;4.13;;;1.92;;
22778;SDS011;11556;51.194;3.800;2023-06-04T00:58:49;4.20;;;1.77;;
22778;SDS011;11556;51.194;3.800;2023-06-04T01:04:16;4.18;;;1.45;;
22778;SDS011;11556;51.194;3.800;2023-06-04T01:06:49;4.40;;;1.92;;
22778;SDS011;11556;51.194;3.800;2023-06-04T01:09:18;5.35;;;2.10;;
22778;SDS011;11556;51.194;3.800;2023-06-04T01:11:45;5.05;;;1.73;;
22778;SDS011;11556;51.194;3.800;2023-06-04T01:14:10;2.78;;;1.67;;
22778;SDS011;11556;51.194;3.800;2023-06-04T01:25:15;2.78;;;1.52;;
22778;SDS011;11556;51.194;3.800;2023-06-04T01:27:49;3.17;;;1.70;;
22778;SDS011;11556;51.194;3.800;2023-06-04T01:30:17;3.17;;;1.60;;
22778;SDS011;11556;51.194;3.800;2023-06-04T01:33:11;6.00;;;1.65;;
22778;SDS011;11556;51.194;3.800;2023-06-04T01:35:38;3.30;;;1.65;;
22778;SDS011;11556;51.194;3.800;2023-06-04T01:38:04;6.40;;;1.85;;
22778;SDS011;11556;51.194;3.800;2023-06-04T01:40:29;3.17;;;1.90;;
22778;SDS011;11556;51.194;3.800;2023-06-04T01:42:55;2.83;;;1.80;;
22778;SDS011;11556;51.194;3.800;2023-06-04T01:45:22;4.30;;;2.05;;
22778;SDS011;11556;51.194;3.800;2023-06-04T01:47:48;5.80;;;1.85;;
22778;SDS011;11556;51.194;3.800;2023-06-04T01:50:13;2.25;;;1.75;;
22778;SDS011;11556;51.194;3.800;2023-06-04T01:52:39;3.92;;;1.80;;
22778;SDS011;11556;51.194;3.800;2023-06-04T01:55:06;2.72;;;1.60;;
22778;SDS011;11556;51.194;3.800;2023-06-04T01:57:33;3.60;;;2.10;;
22778;SDS011;11556;51.194;3.800;2023-06-04T02:00:00;6.45;;;2.20;;
22778;SDS011;11556;51.194;3.800;2023-06-04T02:02:26;5.70;;;1.80;;
22778;SDS011;11556;51.194;3.800;2023-06-04T02:04:52;4.82;;;1.52;;
22778;SDS011;11556;51.194;3.800;2023-06-04T02:07:18;2.90;;;1.85;;
22778;SDS011;11556;51.194;3.800;2023-06-04T02:09:47;3.42;;;1.95;;
22778;SDS011;11556;51.194;3.800;2023-06-04T02:12:13;2.42;;;2.00;;
22778;SDS011;11556;51.194;3.800;2023-06-04T02:14:38;3.55;;;1.73;;
22778;SDS011;11556;51.194;3.800;2023-06-04T02:17:06;2.80;;;2.08;;
22778;SDS011;11556;51.194;3.800;2023-06-04T02:19:37;3.55;;;1.80;;
22778;SDS011;11556;51.194;3.800;2023-06-04T02:24:38;3.38;;;1.90;;
22778;SDS011;11556;51.194;3.800;2023-06-04T02:27:07;4.57;;;2.25;;
22778;SDS011;11556;51.194;3.800;2023-06-04T02:29:33;2.58;;;2.10;;
22778;SDS011;11556;51.194;3.800;2023-06-04T02:32:00;5.85;;;1.80;;
22778;SDS011;11556;51.194;3.800;2023-06-04T02:34:26;3.50;;;2.20;;
22778;SDS011;11556;51.194;3.800;2023-06-04T02:36:51;3.75;;;1.90;;
22778;SDS011;11556;51.194;3.800;2023-06-04T02:39:18;2.97;;;2.10;;
22778;SDS011;11556;51.194;3.800;2023-06-04T02:41:44;4.10;;;1.83;;
22778;SDS011;11556;51.194;3.800;2023-06-04T02:44:09;2.88;;;1.95;;
22778;SDS011;11556;51.194;3.800;2023-06-04T02:46:36;5.15;;;2.08;;
22778;SDS011;11556;51.194;3.800;2023-06-04T02:49:02;7.20;;;2.15;;
22778;SDS011;11556;51.194;3.800;2023-06-04T02:51:27;2.92;;;2.13;;
22778;SDS011;11556;51.194;3.800;2023-06-04T02:53:53;7.40;;;2.58;;
22778;SDS011;11556;51.194;3.800;2023-06-04T02:56:19;4.60;;;2.15;;
22778;SDS011;11556;51.194;3.800;2023-06-04T02:58:51;5.55;;;2.35;;
22778;SDS011;11556;51.194;3.800;2023-06-04T03:01:21;6.43;;;2.63;;
22778;SDS011;11556;51.194;3.800;2023-06-04T03:03:48;3.13;;;1.67;;
22778;SDS011;11556;51.194;3.800;2023-06-04T03:06:15;2.58;;;1.80;;
22778;SDS011;11556;51.194;3.800;2023-06-04T03:08:42;3.83;;;2.20;;
22778;SDS011;11556;51.194;3.800;2023-06-04T03:11:08;5.43;;;2.28;;
22778;SDS011;11556;51.194;3.800;2023-06-04T03:13:33;4.75;;;2.88;;
22778;SDS011;11556;51.194;3.800;2023-06-04T03:16:00;2.80;;;2.15;;
22778;SDS011;11556;51.194;3.800;2023-06-04T03:18:29;3.15;;;2.08;;
22778;SDS011;11556;51.194;3.800;2023-06-04T03:20:55;2.25;;;2.00;;
22778;SDS011;11556;51.194;3.800;2023-06-04T03:23:21;3.10;;;2.10;;
22778;SDS011;11556;51.194;3.800;2023-06-04T03:25:47;2.72;;;2.15;;
22778;SDS011;11556;51.194;3.800;2023-06-04T03:28:13;7.55;;;2.47;;
22778;SDS011;11556;51.194;3.800;2023-06-04T03:30:39;3.58;;;2.42;;
22778;SDS011;11556;51.194;3.800;2023-06-04T03:33:05;3.78;;;2.05;;
22778;SDS011;11556;51.194;3.800;2023-06-04T03:35:32;5.15;;;2.28;;
22778;SDS011;11556;51.194;3.800;2023-06-04T03:37:58;3.40;;;2.30;;
22778;SDS011;11556;51.194;3.800;2023-06-04T03:40:24;2.35;;;2.10;;
22778;SDS011;11556;51.194;3.800;2023-06-04T03:42:49;3.45;;;2.05;;
22778;SDS011;11556;51.194;3.800;2023-06-04T03:45:15;4.72;;;2.38;;
22778;SDS011;11556;51.194;3.800;2023-06-04T03:47:41;4.47;;;2.70;;
22778;SDS011;11556;51.194;3.800;2023-06-04T03:50:06;3.60;;;2.35;;
22778;SDS011;11556;51.194;3.800;2023-06-04T03:52:32;3.17;;;2.35;;
22778;SDS011;11556;51.194;3.800;2023-06-04T03:54:58;2.80;;;2.22;;
22778;SDS011;11556;51.194;3.800;2023-06-04T03:57:25;3.90;;;2.00;;
22778;SDS011;11556;51.194;3.800;2023-06-04T03:59:50;2.97;;;2.25;;
22778;SDS011;11556;51.194;3.800;2023-06-04T04:02:16;3.17;;;1.92;;
22778;SDS011;11556;51.194;3.800;2023-06-04T04:04:43;3.85;;;2.33;;
22778;SDS011;11556;51.194;3.800;2023-06-04T04:07:09;4.00;;;2.25;;
22778;SDS011;11556;51.194;3.800;2023-06-04T04:09:35;8.77;;;2.42;;
22778;SDS011;11556;51.194;3.800;2023-06-04T04:12:02;2.70;;;2.30;;
22778;SDS011;11556;51.194;3.800;2023-06-04T04:14:28;3.15;;;2.20;;
22778;SDS011;11556;51.194;3.800;2023-06-04T04:16:54;6.75;;;2.10;;
22778;SDS011;11556;51.194;3.800;2023-06-04T04:19:19;4.47;;;2.30;;
22778;SDS011;11556;51.194;3.800;2023-06-04T04:21:45;2.70;;;2.40;;
22778;SDS011;11556;51.194;3.800;2023-06-04T04:24:21;3.92;;;2.05;;
22778;SDS011;11556;51.194;3.800;2023-06-04T04:26:51;3.30;;;2.28;;
22778;SDS011;11556;51.194;3.800;2023-06-04T04:29:19;4.15;;;2.35;;
22778;SDS011;11556;51.194;3.800;2023-06-04T04:31:48;2.45;;;2.10;;
22778;SDS011;11556;51.194;3.800;2023-06-04T04:34:14;4.65;;;2.10;;
22778;SDS011;11556;51.194;3.800;2023-06-04T04:36:40;3.78;;;2.08;;
22778;SDS011;11556;51.194;3.800;2023-06-04T04:39:06;2.40;;;2.20;;
22778;SDS011;11556;51.194;3.800;2023-06-04T04:41:32;3.05;;;2.17;;
22778;SDS011;11556;51.194;3.800;2023-06-04T04:44:06;3.33;;;2.20;;
22778;SDS011;11556;51.194;3.800;2023-06-04T04:46:32;4.68;;;2.17;;
22778;SDS011;11556;51.194;3.800;2023-06-04T04:48:57;3.13;;;2.38;;
22778;SDS011;11556;51.194;3.800;2023-06-04T04:51:23;2.97;;;2.05;;
22778;SDS011;11556;51.194;3.800;2023-06-04T04:53:48;3.90;;;1.95;;
22778;SDS011;11556;51.194;3.800;2023-06-04T04:56:14;3.47;;;1.90;;
22778;SDS011;11556;51.194;3.800;2023-06-04T04:58:40;4.30;;;2.15;;
22778;SDS011;11556;51.194;3.800;2023-06-04T05:01:05;3.67;;;2.13;;
22778;SDS011;11556;51.194;3.800;2023-06-04T05:03:31;4.00;;;2.47;;
22778;SDS011;11556;51.194;3.800;2023-06-04T05:05:56;5.18;;;2.50;;
22778;SDS011;11556;51.194;3.800;2023-06-04T05:08:22;3.45;;;1.75;;
22778;SDS011;11556;51.194;3.800;2023-06-04T05:10:48;4.30;;;2.20;;
22778;SDS011;11556;51.194;3.800;2023-06-04T05:13:15;2.00;;;1.55;;
22778;SDS011;11556;51.194;3.800;2023-06-04T05:15:41;3.63;;;1.92;;
22778;SDS011;11556;51.194;3.800;2023-06-04T05:18:07;2.60;;;1.83;;
22778;SDS011;11556;51.194;3.800;2023-06-04T05:20:33;2.55;;;1.63;;
22778;SDS011;11556;51.194;3.800;2023-06-04T05:23:02;2.15;;;1.67;;
22778;SDS011;11556;51.194;3.800;2023-06-04T05:25:29;3.25;;;1.70;;
22778;SDS011;11556;51.194;3.800;2023-06-04T05:27:55;4.45;;;1.80;;
22778;SDS011;11556;51.194;3.800;2023-06-04T05:30:21;6.05;;;1.75;;
22778;SDS011;11556;51.194;3.800;2023-06-04T05:32:47;3.72;;;1.95;;
22778;SDS011;11556;51.194;3.800;2023-06-04T05:35:15;2.63;;;1.70;;
22778;SDS011;11556;51.194;3.800;2023-06-04T05:37:41;3.13;;;1.67;;
22778;SDS011;11556;51.194;3.800;2023-06-04T05:40:07;2.15;;;1.50;;
22778;SDS011;11556;51.194;3.800;2023-06-04T05:42:34;2.10;;;1.55;;
22778;SDS011;11556;51.194;3.800;2023-06-04T05:45:00;3.53;;;1.92;;
22778;SDS011;11556;51.194;3.800;2023-06-04T05:47:27;2.78;;;1.60;;
22778;SDS011;11556;51.194;3.800;2023-06-04T05:49:56;3.08;;;1.85;;
22778;SDS011;11556;51.194;3.800;2023-06-04T05:52:22;2.38;;;1.77;;
22778;SDS011;11556;51.194;3.800;2023-06-04T05:54:48;1.75;;;1.65;;
22778;SDS011;11556;51.194;3.800;2023-06-04T05:57:14;4.57;;;2.00;;
22778;SDS011;11556;51.194;3.800;2023-06-04T05:59:40;3.00;;;1.80;;
22778;SDS011;11556;51.194;3.800;2023-06-04T06:02:05;1.90;;;1.70;;
22778;SDS011;11556;51.194;3.800;2023-06-04T06:04:32;5.03;;;1.77;;
22778;SDS011;11556;51.194;3.800;2023-06-04T06:06:58;3.17;;;1.85;;
22778;SDS011;11556;51.194;3.800;2023-06-04T06:09:23;3.78;;;1.95;;
22778;SDS011;11556;51.194;3.800;2023-06-04T06:11:49;3.30;;;1.98;;
22778;SDS011;11556;51.194;3.800;2023-06-04T06:14:14;2.47;;;1.60;;
22778;SDS011;11556;51.194;3.800;2023-06-04T06:16:40;1.73;;;1.63;;
22778;SDS011;11556;51.194;3.800;2023-06-04T06:19:06;2.65;;;1.80;;
22778;SDS011;11556;51.194;3.800;2023-06-04T06:21:31;2.33;;;1.50;;
22778;SDS011;11556;51.194;3.800;2023-06-04T06:23:57;4.40;;;1.80;;
22778;SDS011;11556;51.194;3.800;2023-06-04T06:26:23;3.22;;;1.73;;
22778;SDS011;11556;51.194;3.800;2023-06-04T06:28:50;4.53;;;1.42;;
22778;SDS011;11556;51.194;3.800;2023-06-04T06:31:15;6.53;;;2.15;;
22778;SDS011;11556;51.194;3.800;2023-06-04T06:33:41;2.92;;;1.70;;
22778;SDS011;11556;51.194;3.800;2023-06-04T06:36:07;3.67;;;1.40;;
22778;SDS011;11556;51.194;3.800;2023-06-04T06:38:34;2.10;;;1.60;;
22778;SDS011;11556;51.194;3.800;2023-06-04T06:41:00;1.92;;;1.60;;
22778;SDS011;11556;51.194;3.800;2023-06-04T06:43:26;3.83;;;1.70;;
22778;SDS011;11556;51.194;3.800;2023-06-04T06:45:51;3.45;;;1.80;;
22778;SDS011;11556;51.194;3.800;2023-06-04T06:48:17;5.50;;;1.65;;
22778;SDS011;11556;51.194;3.800;2023-06-04T06:50:42;3.63;;;1.63;;
22778;SDS011;11556;51.194;3.800;2023-06-04T06:53:08;3.20;;;1.50;;
22778;SDS011;11556;51.194;3.800;2023-06-04T06:55:34;3.00;;;1.60;;
22778;SDS011;11556;51.194;3.800;2023-06-04T06:57:59;2.17;;;1.65;;
22778;SDS011;11556;51.194;3.800;2023-06-04T07:00:26;2.40;;;1.70;;
22778;SDS011;11556;51.194;3.800;2023-06-04T07:02:52;2.10;;;1.50;;
22778;SDS011;11556;51.194;3.800;2023-06-04T07:05:18;4.07;;;1.77;;
22778;SDS011;11556;51.194;3.800;2023-06-04T07:07:44;3.35;;;1.90;;
22778;SDS011;11556;51.194;3.800;2023-06-04T07:10:11;3.08;;;1.60;;
22778;SDS011;11556;51.194;3.800;2023-06-04T07:12:38;4.85;;;1.98;;
22778;SDS011;11556;51.194;3.800;2023-06-04T07:15:04;2.70;;;1.75;;
22778;SDS011;11556;51.194;3.800;2023-06-04T07:17:31;6.22;;;1.67;;
22778;SDS011;11556;51.194;3.800;2023-06-04T07:19:57;7.53;;;2.05;;
22778;SDS011;11556;51.194;3.800;2023-06-04T07:22:22;2.08;;;1.73;;
22778;SDS011;11556;51.194;3.800;2023-06-04T07:24:48;3.22;;;2.03;;
22778;SDS011;11556;51.194;3.800;2023-06-04T07:27:14;3.47;;;1.73;;
22778;SDS011;11556;51.194;3.800;2023-06-04T07:29:42;4.32;;;1.80;;
22778;SDS011;11556;51.194;3.800;2023-06-04T07:32:09;3.28;;;1.58;;
22778;SDS011;11556;51.194;3.800;2023-06-04T07:34:35;2.22;;;1.60;;
22778;SDS011;11556;51.194;3.800;2023-06-04T07:37:02;2.50;;;1.70;;
22778;SDS011;11556;51.194;3.800;2023-06-04T07:39:28;2.40;;;1.80;;
22778;SDS011;11556;51.194;3.800;2023-06-04T07:41:53;2.33;;;1.50;;
22778;SDS011;11556;51.194;3.800;2023-06-04T07:44:19;2.50;;;1.80;;
22778;SDS011;11556;51.194;3.800;2023-06-04T07:46:45;3.60;;;1.70;;
22778;SDS011;11556;51.194;3.800;2023-06-04T07:49:10;1.60;;;1.30;;
22778;SDS011;11556;51.194;3.800;2023-06-04T07:51:36;1.45;;;1.33;;
22778;SDS011;11556;51.194;3.800;2023-06-04T07:54:02;3.03;;;1.58;;
22778;SDS011;11556;51.194;3.800;2023-06-04T07:56:28;2.05;;;1.67;;
22778;SDS011;11556;51.194;3.800;2023-06-04T07:58:53;1.92;;;1.30;;
22778;SDS011;11556;51.194;3.800;2023-06-04T08:01:19;5.07;;;1.63;;
22778;SDS011;11556;51.194;3.800;2023-06-04T08:03:45;2.13;;;1.25;;
22778;SDS011;11556;51.194;3.800;2023-06-04T08:06:10;3.45;;;1.50;;
22778;SDS011;11556;51.194;3.800;2023-06-04T08:08:41;3.38;;;1.70;;
22778;SDS011;11556;51.194;3.800;2023-06-04T08:11:13;1.88;;;1.38;;
22778;SDS011;11556;51.194;3.800;2023-06-04T08:13:39;3.38;;;1.38;;
22778;SDS011;11556;51.194;3.800;2023-06-04T08:16:05;2.40;;;1.25;;
22778;SDS011;11556;51.194;3.800;2023-06-04T08:18:31;5.75;;;1.58;;
22778;SDS011;11556;51.194;3.800;2023-06-04T08:20:57;1.67;;;1.10;;
22778;SDS011;11556;51.194;3.800;2023-06-04T08:23:22;2.08;;;1.40;;
22778;SDS011;11556;51.194;3.800;2023-06-04T08:25:48;2.08;;;1.33;;
22778;SDS011;11556;51.194;3.800;2023-06-04T08:28:14;1.60;;;1.30;;
22778;SDS011;11556;51.194;3.800;2023-06-04T08:30:44;2.35;;;1.30;;
22778;SDS011;11556;51.194;3.800;2023-06-04T08:33:10;2.45;;;1.38;;
22778;SDS011;11556;51.194;3.800;2023-06-04T08:35:36;5.15;;;1.30;;
22778;SDS011;11556;51.194;3.800;2023-06-04T08:38:01;2.00;;;1.00;;
22778;SDS011;11556;51.194;3.800;2023-06-04T08:40:27;1.13;;;1.00;;
22778;SDS011;11556;51.194;3.800;2023-06-04T08:42:54;2.55;;;1.20;;
22778;SDS011;11556;51.194;3.800;2023-06-04T08:45:24;2.50;;;1.20;;
22778;SDS011;11556;51.194;3.800;2023-06-04T08:47:51;2.25;;;1.15;;
22778;SDS011;11556;51.194;3.800;2023-06-04T08:50:17;1.95;;;1.00;;
22778;SDS011;11556;51.194;3.800;2023-06-04T08:52:44;1.48;;;1.00;;
22778;SDS011;11556;51.194;3.800;2023-06-04T08:55:11;1.33;;;1.00;;
22778;SDS011;11556;51.194;3.800;2023-06-04T08:57:39;1.85;;;1.10;;
22778;SDS011;11556;51.194;3.800;2023-06-04T09:00:05;2.97;;;1.30;;
22778;SDS011;11556;51.194;3.800;2023-06-04T09:02:33;4.05;;;1.00;;
22778;SDS011;11556;51.194;3.800;2023-06-04T09:05:02;2.25;;;1.20;;
22778;SDS011;11556;51.194;3.800;2023-06-04T09:07:29;1.30;;;1.10;;
22778;SDS011;11556;51.194;3.800;2023-06-04T09:09:56;1.65;;;0.80;;
22778;SDS011;11556;51.194;3.800;2023-06-04T09:12:23;1.73;;;1.10;;
22778;SDS011;11556;51.194;3.800;2023-06-04T09:14:50;2.70;;;1.00;;
22778;SDS011;11556;51.194;3.800;2023-06-04T09:17:20;2.70;;;1.00;;
22778;SDS011;11556;51.194;3.800;2023-06-04T09:22:13;1.00;;;0.90;;
22778;SDS011;11556;51.194;3.800;2023-06-04T09:24:39;1.88;;;1.05;;
22778;SDS011;11556;51.194;3.800;2023-06-04T09:27:10;2.05;;;0.93;;
22778;SDS011;11556;51.194;3.800;2023-06-04T09:29:37;1.02;;;0.90;;
22778;SDS011;11556;51.194;3.800;2023-06-04T09:32:04;1.20;;;0.90;;
22778;SDS011;11556;51.194;3.800;2023-06-04T09:34:30;1.13;;;0.88;;
22778;SDS011;11556;51.194;3.800;2023-06-04T09:36:56;2.83;;;1.00;;
22778;SDS011;11556;51.194;3.800;2023-06-04T09:39:21;3.90;;;1.25;;
22778;SDS011;11556;51.194;3.800;2023-06-04T09:42:00;2.63;;;0.80;;
22778;SDS011;11556;51.194;3.800;2023-06-04T09:44:28;1.20;;;0.88;;
22778;SDS011;11556;51.194;3.800;2023-06-04T09:46:55;2.00;;;1.00;;
22778;SDS011;11556;51.194;3.800;2023-06-04T09:49:22;1.88;;;0.80;;
22778;SDS011;11556;51.194;3.800;2023-06-04T09:51:47;2.88;;;0.60;;
22778;SDS011;11556;51.194;3.800;2023-06-04T09:54:14;1.48;;;0.93;;
22778;SDS011;11556;51.194;3.800;2023-06-04T09:56:40;1.13;;;0.65;;
22778;SDS011;11556;51.194;3.800;2023-06-04T09:59:06;1.60;;;0.70;;
22778;SDS011;11556;51.194;3.800;2023-06-04T10:01:34;0.93;;;0.70;;
22778;SDS011;11556;51.194;3.800;2023-06-04T10:04:05;1.02;;;0.80;;
22778;SDS011;11556;51.194;3.800;2023-06-04T10:06:33;0.98;;;0.80;;
22778;SDS011;11556;51.194;3.800;2023-06-04T10:09:04;1.52;;;0.98;;
22778;SDS011;11556;51.194;3.800;2023-06-04T10:11:33;1.50;;;0.90;;
22778;SDS011;11556;51.194;3.800;2023-06-04T10:14:02;1.15;;;0.93;;
22778;SDS011;11556;51.194;3.800;2023-06-04T10:16:31;1.67;;;0.98;;
22778;SDS011;11556;51.194;3.800;2023-06-04T10:18:57;1.63;;;0.77;;
22778;SDS011;11556;51.194;3.800;2023-06-04T10:21:25;1.38;;;0.85;;
22778;SDS011;11556;51.194;3.800;2023-06-04T10:23:52;2.05;;;0.90;;
22778;SDS011;11556;51.194;3.800;2023-06-04T10:26:18;0.98;;;0.88;;
22778;SDS011;11556;51.194;3.800;2023-06-04T10:28:44;4.57;;;1.10;;
22778;SDS011;11556;51.194;3.800;2023-06-04T10:31:10;4.25;;;1.08;;
22778;SDS011;11556;51.194;3.800;2023-06-04T10:33:36;2.10;;;1.08;;
22778;SDS011;11556;51.194;3.800;2023-06-04T10:36:15;1.45;;;1.00;;
22778;SDS011;11556;51.194;3.800;2023-06-04T10:38:46;2.20;;;0.90;;
22778;SDS011;11556;51.194;3.800;2023-06-04T10:41:20;1.80;;;1.08;;
22778;SDS011;11556;51.194;3.800;2023-06-04T10:43:46;1.17;;;1.02;;
22778;SDS011;11556;51.194;3.800;2023-06-04T10:46:17;1.45;;;1.10;;
22778;SDS011;11556;51.194;3.800;2023-06-04T10:51:13;1.30;;;0.88;;
22778;SDS011;11556;51.194;3.800;2023-06-04T10:53:38;1.10;;;1.00;;
22778;SDS011;11556;51.194;3.800;2023-06-04T10:56:04;0.80;;;0.80;;
22778;SDS011;11556;51.194;3.800;2023-06-04T10:58:33;1.10;;;0.80;;
22778;SDS011;11556;51.194;3.800;2023-06-04T11:01:00;2.70;;;1.05;;
22778;SDS011;11556;51.194;3.800;2023-06-04T11:03:35;0.98;;;0.90;;
22778;SDS011;11556;51.194;3.800;2023-06-04T11:06:02;2.58;;;0.63;;
22778;SDS011;11556;51.194;3.800;2023-06-04T11:08:28;1.10;;;0.90;;
22778;SDS011;11556;51.194;3.800;2023-06-04T11:10:55;1.15;;;0.82;;
22778;SDS011;11556;51.194;3.800;2023-06-04T11:13:26;2.20;;;0.77;;
22778;SDS011;11556;51.194;3.800;2023-06-04T11:15:52;0.88;;;0.60;;
22778;SDS011;11556;51.194;3.800;2023-06-04T11:18:18;1.30;;;1.00;;
22778;SDS011;11556;51.194;3.800;2023-06-04T11:20:48;2.08;;;1.00;;
22778;SDS011;11556;51.194;3.800;2023-06-04T11:23:24;1.55;;;0.63;;
22778;SDS011;11556;51.194;3.800;2023-06-04T11:25:51;0.85;;;0.77;;
22778;SDS011;11556;51.194;3.800;2023-06-04T11:28:18;2.83;;;0.60;;
22778;SDS011;11556;51.194;3.800;2023-06-04T11:30:44;1.17;;;0.77;;
22778;SDS011;11556;51.194;3.800;2023-06-04T11:33:20;2.80;;;0.70;;
22778;SDS011;11556;51.194;3.800;2023-06-04T11:35:46;3.13;;;0.80;;
22778;SDS011;11556;51.194;3.800;2023-06-04T11:38:11;1.30;;;0.90;;
22778;SDS011;11556;51.194;3.800;2023-06-04T11:40:37;2.92;;;0.75;;
22778;SDS011;11556;51.194;3.800;2023-06-04T11:43:02;1.40;;;0.68;;
22778;SDS011;11556;51.194;3.800;2023-06-04T11:45:28;1.83;;;0.95;;
22778;SDS011;11556;51.194;3.800;2023-06-04T11:47:57;1.85;;;0.70;;
22778;SDS011;11556;51.194;3.800;2023-06-04T11:50:23;1.27;;;0.80;;
22778;SDS011;11556;51.194;3.800;2023-06-04T11:52:52;1.75;;;0.70;;
22778;SDS011;11556;51.194;3.800;2023-06-04T11:55:18;0.93;;;0.60;;
22778;SDS011;11556;51.194;3.800;2023-06-04T11:57:47;0.98;;;0.80;;
22778;SDS011;11556;51.194;3.800;2023-06-04T12:00:13;1.45;;;1.05;;
22778;SDS011;11556;51.194;3.800;2023-06-04T12:02:48;1.17;;;0.80;;
22778;SDS011;11556;51.194;3.800;2023-06-04T12:05:14;0.95;;;0.70;;
22778;SDS011;11556;51.194;3.800;2023-06-04T12:07:40;1.38;;;0.80;;
22778;SDS011;11556;51.194;3.800;2023-06-04T12:10:07;1.73;;;1.00;;
22778;SDS011;11556;51.194;3.800;2023-06-04T12:12:34;1.23;;;0.75;;
22778;SDS011;11556;51.194;3.800;2023-06-04T12:15:00;2.08;;;0.70;;
22778;SDS011;11556;51.194;3.800;2023-06-04T12:17:26;2.20;;;0.88;;
22778;SDS011;11556;51.194;3.800;2023-06-04T12:19:52;1.38;;;1.00;;
22778;SDS011;11556;51.194;3.800;2023-06-04T12:22:18;0.90;;;0.70;;
22778;SDS011;11556;51.194;3.800;2023-06-04T12:24:48;1.58;;;1.00;;
22778;SDS011;11556;51.194;3.800;2023-06-04T12:27:21;2.80;;;0.88;;
22778;SDS011;11556;51.194;3.800;2023-06-04T12:29:55;2.20;;;0.70;;
22778;SDS011;11556;51.194;3.800;2023-06-04T12:32:24;1.98;;;1.42;;
22778;SDS011;11556;51.194;3.800;2023-06-04T12:34:50;2.85;;;1.10;;
22778;SDS011;11556;51.194;3.800;2023-06-04T12:37:15;1.45;;;0.80;;
22778;SDS011;11556;51.194;3.800;2023-06-04T12:39:41;3.90;;;0.85;;
22778;SDS011;11556;51.194;3.800;2023-06-04T12:42:08;1.95;;;0.90;;
22778;SDS011;11556;51.194;3.800;2023-06-04T12:44:40;1.30;;;0.80;;
22778;SDS011;11556;51.194;3.800;2023-06-04T12:47:06;4.13;;;0.90;;
22778;SDS011;11556;51.194;3.800;2023-06-04T12:49:33;4.35;;;1.00;;
22778;SDS011;11556;51.194;3.800;2023-06-04T12:51:58;1.17;;;0.70;;
22778;SDS011;11556;51.194;3.800;2023-06-04T12:54:24;1.23;;;0.80;;
22778;SDS011;11556;51.194;3.800;2023-06-04T12:56:51;1.67;;;0.80;;
22778;SDS011;11556;51.194;3.800;2023-06-04T12:59:18;0.90;;;0.70;;
22778;SDS011;11556;51.194;3.800;2023-06-04T13:01:43;1.85;;;0.90;;
22778;SDS011;11556;51.194;3.800;2023-06-04T13:04:09;2.05;;;1.00;;
22778;SDS011;11556;51.194;3.800;2023-06-04T13:06:35;3.03;;;1.00;;
22778;SDS011;11556;51.194;3.800;2023-06-04T13:09:03;1.15;;;1.05;;
22778;SDS011;11556;51.194;3.800;2023-06-04T13:11:34;0.93;;;0.68;;
22778;SDS011;11556;51.194;3.800;2023-06-04T13:14:02;2.03;;;0.80;;
22778;SDS011;11556;51.194;3.800;2023-06-04T13:16:27;1.67;;;0.60;;
22778;SDS011;11556;51.194;3.800;2023-06-04T13:18:53;2.70;;;1.00;;
22778;SDS011;11556;51.194;3.800;2023-06-04T13:21:18;0.70;;;0.70;;
22778;SDS011;11556;51.194;3.800;2023-06-04T13:23:44;1.00;;;0.70;;
22778;SDS011;11556;51.194;3.800;2023-06-04T13:26:10;2.55;;;0.75;;
22778;SDS011;11556;51.194;3.800;2023-06-04T13:28:35;1.73;;;0.98;;
22778;SDS011;11556;51.194;3.800;2023-06-04T13:31:02;0.88;;;0.70;;
22778;SDS011;11556;51.194;3.800;2023-06-04T13:33:27;1.90;;;0.90;;
22778;SDS011;11556;51.194;3.800;2023-06-04T13:35:53;1.50;;;0.70;;
22778;SDS011;11556;51.194;3.800;2023-06-04T13:38:19;1.05;;;0.75;;
22778;SDS011;11556;51.194;3.800;2023-06-04T13:40:44;0.95;;;0.85;;
22778;SDS011;11556;51.194;3.800;2023-06-04T13:43:10;1.10;;;0.77;;
22778;SDS011;11556;51.194;3.800;2023-06-04T13:45:35;1.58;;;0.80;;
22778;SDS011;11556;51.194;3.800;2023-06-04T13:48:01;0.70;;;0.60;;
22778;SDS011;11556;51.194;3.800;2023-06-04T13:50:31;2.75;;;0.93;;
22778;SDS011;11556;51.194;3.800;2023-06-04T13:52:57;1.40;;;0.82;;
22778;SDS011;11556;51.194;3.800;2023-06-04T13:55:22;2.00;;;0.80;;
22778;SDS011;11556;51.194;3.800;2023-06-04T13:57:48;3.38;;;1.00;;
22778;SDS011;11556;51.194;3.800;2023-06-04T14:00:13;2.03;;;1.08;;
22778;SDS011;11556;51.194;3.800;2023-06-04T14:02:40;2.78;;;1.10;;
22778;SDS011;11556;51.194;3.800;2023-06-04T14:05:06;1.42;;;1.00;;
22778;SDS011;11556;51.194;3.800;2023-06-04T14:07:31;4.30;;;0.90;;
22778;SDS011;11556;51.194;3.800;2023-06-04T14:09:57;3.90;;;1.40;;
22778;SDS011;11556;51.194;3.800;2023-06-04T14:12:23;3.80;;;1.10;;
22778;SDS011;11556;51.194;3.800;2023-06-04T14:14:49;4.82;;;1.00;;
22778;SDS011;11556;51.194;3.800;2023-06-04T14:17:15;3.08;;;1.08;;
22778;SDS011;11556;51.194;3.800;2023-06-04T14:19:41;4.13;;;0.90;;
22778;SDS011;11556;51.194;3.800;2023-06-04T14:22:07;1.30;;;1.08;;
22778;SDS011;11556;51.194;3.800;2023-06-04T14:24:34;2.25;;;0.95;;
22778;SDS011;11556;51.194;3.800;2023-06-04T14:27:00;1.02;;;0.70;;
22778;SDS011;11556;51.194;3.800;2023-06-04T14:29:26;1.30;;;1.00;;
22778;SDS011;11556;51.194;3.800;2023-06-04T14:31:52;1.48;;;1.00;;
22778;SDS011;11556;51.194;3.800;2023-06-04T14:34:18;2.25;;;1.10;;
22778;SDS011;11556;51.194;3.800;2023-06-04T14:36:43;2.00;;;1.00;;
22778;SDS011;11556;51.194;3.800;2023-06-04T14:39:09;1.13;;;0.90;;
22778;SDS011;11556;51.194;3.800;2023-06-04T14:41:34;1.52;;;0.90;;
22778;SDS011;11556;51.194;3.800;2023-06-04T14:44:00;1.52;;;0.90;;
22778;SDS011;11556;51.194;3.800;2023-06-04T14:46:26;2.75;;;1.20;;
22778;SDS011;11556;51.194;3.800;2023-06-04T14:48:52;3.60;;;1.02;;
22778;SDS011;11556;51.194;3.800;2023-06-04T14:51:18;2.22;;;1.20;;
22778;SDS011;11556;51.194;3.800;2023-06-04T14:53:46;4.80;;;1.30;;
22778;SDS011;11556;51.194;3.800;2023-06-04T14:56:12;2.63;;;1.27;;
22778;SDS011;11556;51.194;3.800;2023-06-04T14:58:37;1.85;;;1.30;;
22778;SDS011;11556;51.194;3.800;2023-06-04T15:01:03;5.38;;;1.30;;
22778;SDS011;11556;51.194;3.800;2023-06-04T15:03:29;2.67;;;1.17;;